sensor_id;sensor_type;location;lat;lon;timestamp;temperature;humidity
913;DHT22;443;51.448;7.028;2023-04-06T00:00:22;11.30;61.90
913;DHT22;443;51.448;7.028;2023-04-06T00:02:49;11.30;61.60
913;DHT22;443;51.448;7.028;2023-04-06T00:05:17;11.30;62.10
913;DHT22;443;51.448;7.028;2023-04-06T00:07:44;11.30;62.00
913;DHT22;443;51.448;7.028;2023-04-06T00:10:11;11.20;62.00
913;DHT22;443;51.448;7.028;2023-04-06T00:12:39;11.20;61.60
913;DHT22;443;51.448;7.028;2023-04-06T00:15:07;11.30;62.40
913;DHT22;443;51.448;7.028;2023-04-06T00:17:34;11.30;62.30
913;DHT22;443;51.448;7.028;2023-04-06T00:20:01;11.30;62.10
913;DHT22;443;51.448;7.028;2023-04-06T00:22:28;11.30;62.20
913;DHT22;443;51.448;7.028;2023-04-06T00:24:55;11.30;62.50
913;DHT22;443;51.448;7.028;2023-04-06T00:27:22;11.20;61.90
913;DHT22;443;51.448;7.028;2023-04-06T00:29:50;11.20;62.20
913;DHT22;443;51.448;7.028;2023-04-06T00:32:17;11.20;62.70
913;DHT22;443;51.448;7.028;2023-04-06T00:34:44;11.20;62.20
913;DHT22;443;51.448;7.028;2023-04-06T00:37:11;11.10;62.10
913;DHT22;443;51.448;7.028;2023-04-06T00:39:38;11.10;62.60
913;DHT22;443;51.448;7.028;2023-04-06T00:42:10;11.10;62.70
913;DHT22;443;51.448;7.028;2023-04-06T00:44:38;11.10;62.60
913;DHT22;443;51.448;7.028;2023-04-06T00:47:06;11.00;62.60
913;DHT22;443;51.448;7.028;2023-04-06T00:49:33;11.10;63.20
913;DHT22;443;51.448;7.028;2023-04-06T00:52:00;11.10;62.60
913;DHT22;443;51.448;7.028;2023-04-06T00:54:28;11.10;62.80
913;DHT22;443;51.448;7.028;2023-04-06T00:56:55;11.00;63.00
913;DHT22;443;51.448;7.028;2023-04-06T00:59:22;11.00;63.10
913;DHT22;443;51.448;7.028;2023-04-06T01:01:49;11.00;63.20
913;DHT22;443;51.448;7.028;2023-04-06T01:04:17;11.00;63.10
913;DHT22;443;51.448;7.028;2023-04-06T01:06:44;10.90;62.90
913;DHT22;443;51.448;7.028;2023-04-06T01:09:12;10.90;62.90
913;DHT22;443;51.448;7.028;2023-04-06T01:11:39;10.90;63.60
913;DHT22;443;51.448;7.028;2023-04-06T01:14:05;10.90;63.30
913;DHT22;443;51.448;7.028;2023-04-06T01:16:32;10.90;63.20
913;DHT22;443;51.448;7.028;2023-04-06T01:19:00;10.80;63.10
913;DHT22;443;51.448;7.028;2023-04-06T01:21:28;10.80;63.20
913;DHT22;443;51.448;7.028;2023-04-06T01:23:56;10.80;63.10
913;DHT22;443;51.448;7.028;2023-04-06T01:26:23;10.80;63.40
913;DHT22;443;51.448;7.028;2023-04-06T01:28:50;10.80;64.50
913;DHT22;443;51.448;7.028;2023-04-06T01:31:17;10.80;64.00
913;DHT22;443;51.448;7.028;2023-04-06T01:33:44;10.80;63.90
913;DHT22;443;51.448;7.028;2023-04-06T01:36:11;10.80;63.70
913;DHT22;443;51.448;7.028;2023-04-06T01:38:38;10.70;63.50
913;DHT22;443;51.448;7.028;2023-04-06T01:41:06;10.70;63.40
913;DHT22;443;51.448;7.028;2023-04-06T01:43:33;10.70;63.30
913;DHT22;443;51.448;7.028;2023-04-06T01:46:00;10.70;63.50
913;DHT22;443;51.448;7.028;2023-04-06T01:48:27;10.60;63.70
913;DHT22;443;51.448;7.028;2023-04-06T01:50:54;10.70;63.40
913;DHT22;443;51.448;7.028;2023-04-06T01:53:21;10.70;63.30
913;DHT22;443;51.448;7.028;2023-04-06T01:55:48;10.60;63.50
913;DHT22;443;51.448;7.028;2023-04-06T01:58:16;10.70;63.50
913;DHT22;443;51.448;7.028;2023-04-06T02:00:43;10.70;63.20
913;DHT22;443;51.448;7.028;2023-04-06T02:03:10;10.70;63.40
913;DHT22;443;51.448;7.028;2023-04-06T02:05:37;10.70;62.70
913;DHT22;443;51.448;7.028;2023-04-06T02:08:04;10.70;62.50
913;DHT22;443;51.448;7.028;2023-04-06T02:10:32;10.70;63.00
913;DHT22;443;51.448;7.028;2023-04-06T02:12:59;10.70;62.70
913;DHT22;443;51.448;7.028;2023-04-06T02:15:27;10.70;63.40
913;DHT22;443;51.448;7.028;2023-04-06T02:17:54;10.70;63.10
913;DHT22;443;51.448;7.028;2023-04-06T02:20:21;10.70;63.10
913;DHT22;443;51.448;7.028;2023-04-06T02:22:47;10.70;63.00
913;DHT22;443;51.448;7.028;2023-04-06T02:25:15;10.70;63.00
913;DHT22;443;51.448;7.028;2023-04-06T02:27:42;10.70;62.50
913;DHT22;443;51.448;7.028;2023-04-06T02:30:10;10.70;62.60
913;DHT22;443;51.448;7.028;2023-04-06T02:32:38;10.70;63.50
913;DHT22;443;51.448;7.028;2023-04-06T02:35:06;10.70;62.90
913;DHT22;443;51.448;7.028;2023-04-06T02:37:33;10.70;62.50
913;DHT22;443;51.448;7.028;2023-04-06T02:39:59;10.70;62.80
913;DHT22;443;51.448;7.028;2023-04-06T02:42:26;10.70;63.00
913;DHT22;443;51.448;7.028;2023-04-06T02:44:53;10.70;62.90
913;DHT22;443;51.448;7.028;2023-04-06T02:47:20;10.70;62.70
913;DHT22;443;51.448;7.028;2023-04-06T02:49:48;10.60;62.50
913;DHT22;443;51.448;7.028;2023-04-06T02:52:15;10.60;62.70
913;DHT22;443;51.448;7.028;2023-04-06T02:54:43;10.60;62.90
913;DHT22;443;51.448;7.028;2023-04-06T02:57:10;10.70;62.50
913;DHT22;443;51.448;7.028;2023-04-06T02:59:37;10.70;62.40
913;DHT22;443;51.448;7.028;2023-04-06T03:02:04;10.60;62.60
913;DHT22;443;51.448;7.028;2023-04-06T03:04:31;10.70;63.00
913;DHT22;443;51.448;7.028;2023-04-06T03:06:59;10.70;62.80
913;DHT22;443;51.448;7.028;2023-04-06T03:09:26;10.60;62.10
913;DHT22;443;51.448;7.028;2023-04-06T03:11:52;10.60;62.90
913;DHT22;443;51.448;7.028;2023-04-06T03:14:19;10.60;62.80
913;DHT22;443;51.448;7.028;2023-04-06T03:16:47;10.60;62.70
913;DHT22;443;51.448;7.028;2023-04-06T03:19:14;10.60;63.00
913;DHT22;443;51.448;7.028;2023-04-06T03:21:42;10.50;62.50
913;DHT22;443;51.448;7.028;2023-04-06T03:24:10;10.50;63.50
913;DHT22;443;51.448;7.028;2023-04-06T03:26:38;10.50;62.90
913;DHT22;443;51.448;7.028;2023-04-06T03:29:05;10.50;63.30
913;DHT22;443;51.448;7.028;2023-04-06T03:31:32;10.50;62.60
913;DHT22;443;51.448;7.028;2023-04-06T03:33:58;10.40;62.30
913;DHT22;443;51.448;7.028;2023-04-06T03:36:25;10.40;62.60
913;DHT22;443;51.448;7.028;2023-04-06T03:38:52;10.40;63.30
913;DHT22;443;51.448;7.028;2023-04-06T03:41:21;10.40;62.30
913;DHT22;443;51.448;7.028;2023-04-06T03:43:48;10.40;62.60
913;DHT22;443;51.448;7.028;2023-04-06T03:46:15;10.50;62.80
913;DHT22;443;51.448;7.028;2023-04-06T03:48:42;10.40;62.70
913;DHT22;443;51.448;7.028;2023-04-06T03:51:09;10.40;62.90
913;DHT22;443;51.448;7.028;2023-04-06T03:53:36;10.40;62.50
913;DHT22;443;51.448;7.028;2023-04-06T03:56:03;10.40;63.10
913;DHT22;443;51.448;7.028;2023-04-06T03:58:32;10.50;63.90
913;DHT22;443;51.448;7.028;2023-04-06T04:00:59;10.40;63.10
913;DHT22;443;51.448;7.028;2023-04-06T04:03:25;10.40;63.00
913;DHT22;443;51.448;7.028;2023-04-06T04:05:53;10.40;63.00
913;DHT22;443;51.448;7.028;2023-04-06T04:08:20;10.40;62.80
913;DHT22;443;51.448;7.028;2023-04-06T04:10:47;10.40;63.30
913;DHT22;443;51.448;7.028;2023-04-06T04:13:14;10.40;63.60
913;DHT22;443;51.448;7.028;2023-04-06T04:15:42;10.40;63.00
913;DHT22;443;51.448;7.028;2023-04-06T04:18:09;10.40;63.40
913;DHT22;443;51.448;7.028;2023-04-06T04:20:36;10.40;63.40
913;DHT22;443;51.448;7.028;2023-04-06T04:23:03;10.40;63.10
913;DHT22;443;51.448;7.028;2023-04-06T04:25:30;10.40;62.10
913;DHT22;443;51.448;7.028;2023-04-06T04:27:56;10.60;64.00
913;DHT22;443;51.448;7.028;2023-04-06T04:30:23;10.60;62.70
913;DHT22;443;51.448;7.028;2023-04-06T04:32:51;10.50;62.90
913;DHT22;443;51.448;7.028;2023-04-06T04:35:18;10.50;63.00
913;DHT22;443;51.448;7.028;2023-04-06T04:37:45;10.60;62.40
913;DHT22;443;51.448;7.028;2023-04-06T04:40:12;10.60;63.50
913;DHT22;443;51.448;7.028;2023-04-06T04:42:39;10.60;63.30
913;DHT22;443;51.448;7.028;2023-04-06T04:45:07;10.60;63.10
913;DHT22;443;51.448;7.028;2023-04-06T04:47:33;10.60;63.10
913;DHT22;443;51.448;7.028;2023-04-06T04:50:02;10.60;63.10
913;DHT22;443;51.448;7.028;2023-04-06T04:52:29;10.60;62.80
913;DHT22;443;51.448;7.028;2023-04-06T04:54:56;10.60;63.10
913;DHT22;443;51.448;7.028;2023-04-06T04:57:23;10.60;62.90
913;DHT22;443;51.448;7.028;2023-04-06T04:59:50;10.60;63.00
913;DHT22;443;51.448;7.028;2023-04-06T05:02:17;10.60;63.50
913;DHT22;443;51.448;7.028;2023-04-06T05:04:44;11.00;72.00
913;DHT22;443;51.448;7.028;2023-04-06T05:07:12;11.50;71.00
913;DHT22;443;51.448;7.028;2023-04-06T05:09:40;11.70;69.70
913;DHT22;443;51.448;7.028;2023-04-06T05:12:09;11.70;70.60
913;DHT22;443;51.448;7.028;2023-04-06T05:14:36;11.90;70.40
913;DHT22;443;51.448;7.028;2023-04-06T05:17:03;12.10;69.50
913;DHT22;443;51.448;7.028;2023-04-06T05:19:30;11.50;59.90
913;DHT22;443;51.448;7.028;2023-04-06T05:21:57;11.10;60.60
913;DHT22;443;51.448;7.028;2023-04-06T05:24:25;11.00;63.70
913;DHT22;443;51.448;7.028;2023-04-06T05:26:52;10.90;61.70
913;DHT22;443;51.448;7.028;2023-04-06T05:29:19;10.80;61.20
913;DHT22;443;51.448;7.028;2023-04-06T05:31:47;10.80;62.40
913;DHT22;443;51.448;7.028;2023-04-06T05:34:14;10.80;62.40
913;DHT22;443;51.448;7.028;2023-04-06T05:36:40;10.80;62.20
913;DHT22;443;51.448;7.028;2023-04-06T05:39:07;10.80;62.90
913;DHT22;443;51.448;7.028;2023-04-06T05:41:36;10.90;63.00
913;DHT22;443;51.448;7.028;2023-04-06T05:44:03;10.80;62.70
913;DHT22;443;51.448;7.028;2023-04-06T05:46:30;10.80;62.50
913;DHT22;443;51.448;7.028;2023-04-06T05:48:57;10.90;62.30
913;DHT22;443;51.448;7.028;2023-04-06T05:51:24;10.90;63.70
913;DHT22;443;51.448;7.028;2023-04-06T05:53:52;11.00;63.60
913;DHT22;443;51.448;7.028;2023-04-06T05:56:19;10.90;62.20
913;DHT22;443;51.448;7.028;2023-04-06T05:58:47;10.90;62.70
913;DHT22;443;51.448;7.028;2023-04-06T06:01:14;10.90;63.50
913;DHT22;443;51.448;7.028;2023-04-06T06:03:41;10.90;63.20
913;DHT22;443;51.448;7.028;2023-04-06T06:06:08;10.90;62.40
913;DHT22;443;51.448;7.028;2023-04-06T06:08:35;10.90;62.80
913;DHT22;443;51.448;7.028;2023-04-06T06:11:02;11.00;62.20
913;DHT22;443;51.448;7.028;2023-04-06T06:13:28;11.00;64.80
913;DHT22;443;51.448;7.028;2023-04-06T06:15:57;11.10;63.00
913;DHT22;443;51.448;7.028;2023-04-06T06:18:24;11.10;63.80
913;DHT22;443;51.448;7.028;2023-04-06T06:20:51;11.10;63.80
913;DHT22;443;51.448;7.028;2023-04-06T06:23:18;11.10;63.40
913;DHT22;443;51.448;7.028;2023-04-06T06:25:44;11.10;62.50
913;DHT22;443;51.448;7.028;2023-04-06T06:28:11;11.20;63.90
913;DHT22;443;51.448;7.028;2023-04-06T06:30:38;11.20;63.30
913;DHT22;443;51.448;7.028;2023-04-06T06:33:06;11.20;62.40
913;DHT22;443;51.448;7.028;2023-04-06T06:35:33;11.30;63.60
913;DHT22;443;51.448;7.028;2023-04-06T06:38:00;11.30;64.80
913;DHT22;443;51.448;7.028;2023-04-06T06:40:28;11.40;63.60
913;DHT22;443;51.448;7.028;2023-04-06T06:42:55;11.30;61.90
913;DHT22;443;51.448;7.028;2023-04-06T06:45:22;11.40;63.20
913;DHT22;443;51.448;7.028;2023-04-06T06:47:50;11.40;60.70
913;DHT22;443;51.448;7.028;2023-04-06T06:50:19;11.50;61.50
913;DHT22;443;51.448;7.028;2023-04-06T06:52:45;11.40;59.80
913;DHT22;443;51.448;7.028;2023-04-06T06:55:12;11.40;59.80
913;DHT22;443;51.448;7.028;2023-04-06T06:57:39;11.50;60.20
913;DHT22;443;51.448;7.028;2023-04-06T07:00:08;11.50;59.50
913;DHT22;443;51.448;7.028;2023-04-06T07:02:36;11.60;60.70
913;DHT22;443;51.448;7.028;2023-04-06T07:05:03;11.50;59.40
913;DHT22;443;51.448;7.028;2023-04-06T07:07:32;11.60;59.20
913;DHT22;443;51.448;7.028;2023-04-06T07:09:59;11.60;59.20
913;DHT22;443;51.448;7.028;2023-04-06T07:12:27;11.70;59.60
913;DHT22;443;51.448;7.028;2023-04-06T07:14:54;11.60;58.70
913;DHT22;443;51.448;7.028;2023-04-06T07:17:21;11.80;59.50
913;DHT22;443;51.448;7.028;2023-04-06T07:19:48;11.80;59.60
913;DHT22;443;51.448;7.028;2023-04-06T07:22:15;11.80;59.90
913;DHT22;443;51.448;7.028;2023-04-06T07:24:43;11.80;59.30
913;DHT22;443;51.448;7.028;2023-04-06T07:27:10;11.80;59.30
913;DHT22;443;51.448;7.028;2023-04-06T07:29:37;11.90;59.10
913;DHT22;443;51.448;7.028;2023-04-06T07:32:04;11.90;60.00
913;DHT22;443;51.448;7.028;2023-04-06T07:34:31;12.00;60.00
913;DHT22;443;51.448;7.028;2023-04-06T07:36:57;12.20;59.60
913;DHT22;443;51.448;7.028;2023-04-06T07:39:26;12.30;60.50
913;DHT22;443;51.448;7.028;2023-04-06T07:41:55;12.20;59.50
913;DHT22;443;51.448;7.028;2023-04-06T07:44:21;12.30;59.40
913;DHT22;443;51.448;7.028;2023-04-06T07:46:48;12.40;59.30
913;DHT22;443;51.448;7.028;2023-04-06T07:49:15;12.40;59.30
913;DHT22;443;51.448;7.028;2023-04-06T07:51:42;12.50;59.20
913;DHT22;443;51.448;7.028;2023-04-06T07:54:09;12.50;59.60
913;DHT22;443;51.448;7.028;2023-04-06T07:56:36;12.60;61.30
913;DHT22;443;51.448;7.028;2023-04-06T07:59:04;12.60;62.70
913;DHT22;443;51.448;7.028;2023-04-06T08:01:31;12.80;64.40
913;DHT22;443;51.448;7.028;2023-04-06T08:03:58;12.90;59.40
913;DHT22;443;51.448;7.028;2023-04-06T08:06:27;13.00;63.30
913;DHT22;443;51.448;7.028;2023-04-06T08:08:54;13.00;59.90
913;DHT22;443;51.448;7.028;2023-04-06T08:11:21;13.00;62.60
913;DHT22;443;51.448;7.028;2023-04-06T08:13:48;13.20;60.50
913;DHT22;443;51.448;7.028;2023-04-06T08:16:16;13.10;59.80
913;DHT22;443;51.448;7.028;2023-04-06T08:18:43;12.90;59.90
913;DHT22;443;51.448;7.028;2023-04-06T08:21:10;12.90;60.90
913;DHT22;443;51.448;7.028;2023-04-06T08:23:37;13.00;61.50
913;DHT22;443;51.448;7.028;2023-04-06T08:26:04;13.20;65.10
913;DHT22;443;51.448;7.028;2023-04-06T08:28:30;13.10;57.00
913;DHT22;443;51.448;7.028;2023-04-06T08:30:57;13.20;60.50
913;DHT22;443;51.448;7.028;2023-04-06T08:33:26;13.10;60.10
913;DHT22;443;51.448;7.028;2023-04-06T08:35:53;13.30;66.00
913;DHT22;443;51.448;7.028;2023-04-06T08:38:20;13.50;60.50
913;DHT22;443;51.448;7.028;2023-04-06T08:40:46;13.50;63.40
913;DHT22;443;51.448;7.028;2023-04-06T08:43:17;13.60;61.70
913;DHT22;443;51.448;7.028;2023-04-06T08:45:47;13.60;61.90
913;DHT22;443;51.448;7.028;2023-04-06T08:48:14;13.50;59.10
913;DHT22;443;51.448;7.028;2023-04-06T08:50:44;13.40;56.30
913;DHT22;443;51.448;7.028;2023-04-06T08:53:11;13.40;59.70
913;DHT22;443;51.448;7.028;2023-04-06T08:55:38;13.40;59.30
913;DHT22;443;51.448;7.028;2023-04-06T08:58:07;13.40;59.30
913;DHT22;443;51.448;7.028;2023-04-06T09:00:37;13.50;57.00
913;DHT22;443;51.448;7.028;2023-04-06T09:03:05;13.50;59.80
913;DHT22;443;51.448;7.028;2023-04-06T09:05:33;13.40;57.10
913;DHT22;443;51.448;7.028;2023-04-06T09:08:01;13.50;59.30
913;DHT22;443;51.448;7.028;2023-04-06T09:10:29;13.50;58.00
913;DHT22;443;51.448;7.028;2023-04-06T09:13:05;13.50;56.40
913;DHT22;443;51.448;7.028;2023-04-06T09:15:32;13.60;61.90
913;DHT22;443;51.448;7.028;2023-04-06T09:17:59;13.70;60.10
913;DHT22;443;51.448;7.028;2023-04-06T09:20:26;13.60;55.90
913;DHT22;443;51.448;7.028;2023-04-06T09:22:54;13.60;56.10
913;DHT22;443;51.448;7.028;2023-04-06T09:25:24;13.70;56.40
913;DHT22;443;51.448;7.028;2023-04-06T09:28:00;13.80;59.70
913;DHT22;443;51.448;7.028;2023-04-06T09:30:27;13.90;56.40
913;DHT22;443;51.448;7.028;2023-04-06T09:32:56;14.00;61.20
913;DHT22;443;51.448;7.028;2023-04-06T09:35:23;14.00;55.30
913;DHT22;443;51.448;7.028;2023-04-06T09:37:52;14.00;56.40
913;DHT22;443;51.448;7.028;2023-04-06T09:40:20;14.00;57.40
913;DHT22;443;51.448;7.028;2023-04-06T09:42:50;14.10;59.70
913;DHT22;443;51.448;7.028;2023-04-06T09:45:19;14.10;57.80
913;DHT22;443;51.448;7.028;2023-04-06T09:47:46;14.10;57.50
913;DHT22;443;51.448;7.028;2023-04-06T09:50:14;14.10;59.60
913;DHT22;443;51.448;7.028;2023-04-06T09:52:46;14.20;61.70
913;DHT22;443;51.448;7.028;2023-04-06T09:55:23;14.10;56.80
913;DHT22;443;51.448;7.028;2023-04-06T09:57:57;14.20;61.50
913;DHT22;443;51.448;7.028;2023-04-06T10:00:25;14.30;58.90
913;DHT22;443;51.448;7.028;2023-04-06T10:02:58;14.30;57.90
913;DHT22;443;51.448;7.028;2023-04-06T10:05:30;14.30;56.80
913;DHT22;443;51.448;7.028;2023-04-06T10:08:05;14.30;60.50
913;DHT22;443;51.448;7.028;2023-04-06T10:10:32;14.40;62.10
913;DHT22;443;51.448;7.028;2023-04-06T10:13:02;14.40;60.50
913;DHT22;443;51.448;7.028;2023-04-06T10:15:29;14.40;57.40
913;DHT22;443;51.448;7.028;2023-04-06T10:17:57;14.40;59.70
913;DHT22;443;51.448;7.028;2023-04-06T10:20:29;14.50;60.00
913;DHT22;443;51.448;7.028;2023-04-06T10:23:01;14.50;58.20
913;DHT22;443;51.448;7.028;2023-04-06T10:25:33;14.50;57.60
913;DHT22;443;51.448;7.028;2023-04-06T10:28:05;14.60;61.40
913;DHT22;443;51.448;7.028;2023-04-06T10:30:33;14.60;59.40
913;DHT22;443;51.448;7.028;2023-04-06T10:33:00;14.60;57.70
913;DHT22;443;51.448;7.028;2023-04-06T10:35:37;14.60;61.40
913;DHT22;443;51.448;7.028;2023-04-06T10:38:05;14.60;62.70
913;DHT22;443;51.448;7.028;2023-04-06T10:40:35;14.60;57.90
913;DHT22;443;51.448;7.028;2023-04-06T10:43:09;14.60;58.80
913;DHT22;443;51.448;7.028;2023-04-06T10:45:36;14.60;59.20
913;DHT22;443;51.448;7.028;2023-04-06T10:48:13;14.70;59.80
913;DHT22;443;51.448;7.028;2023-04-06T10:50:41;14.70;60.80
913;DHT22;443;51.448;7.028;2023-04-06T10:53:08;14.70;56.30
913;DHT22;443;51.448;7.028;2023-04-06T10:55:38;14.70;58.40
913;DHT22;443;51.448;7.028;2023-04-06T10:58:08;14.80;58.80
913;DHT22;443;51.448;7.028;2023-04-06T11:00:35;14.80;61.30
913;DHT22;443;51.448;7.028;2023-04-06T11:03:02;14.80;57.40
913;DHT22;443;51.448;7.028;2023-04-06T11:05:29;14.80;57.40
913;DHT22;443;51.448;7.028;2023-04-06T11:07:56;14.80;57.70
913;DHT22;443;51.448;7.028;2023-04-06T11:10:23;14.80;59.70
913;DHT22;443;51.448;7.028;2023-04-06T11:12:54;14.80;57.60
913;DHT22;443;51.448;7.028;2023-04-06T11:15:23;14.80;59.20
913;DHT22;443;51.448;7.028;2023-04-06T11:17:50;14.80;59.00
913;DHT22;443;51.448;7.028;2023-04-06T11:20:16;14.80;58.10
913;DHT22;443;51.448;7.028;2023-04-06T11:22:49;14.90;57.60
913;DHT22;443;51.448;7.028;2023-04-06T11:25:16;14.90;58.70
913;DHT22;443;51.448;7.028;2023-04-06T11:27:44;14.80;58.10
913;DHT22;443;51.448;7.028;2023-04-06T11:30:12;14.90;59.70
913;DHT22;443;51.448;7.028;2023-04-06T11:32:41;14.90;58.50
913;DHT22;443;51.448;7.028;2023-04-06T11:35:11;14.80;60.00
913;DHT22;443;51.448;7.028;2023-04-06T11:37:38;14.80;60.60
913;DHT22;443;51.448;7.028;2023-04-06T11:40:08;14.80;58.40
913;DHT22;443;51.448;7.028;2023-04-06T11:42:35;14.70;56.60
913;DHT22;443;51.448;7.028;2023-04-06T11:45:03;14.80;58.70
913;DHT22;443;51.448;7.028;2023-04-06T11:47:32;14.80;59.80
913;DHT22;443;51.448;7.028;2023-04-06T11:50:07;14.80;61.10
913;DHT22;443;51.448;7.028;2023-04-06T11:52:34;14.90;58.70
913;DHT22;443;51.448;7.028;2023-04-06T11:55:11;14.90;56.70
913;DHT22;443;51.448;7.028;2023-04-06T11:57:39;14.80;59.50
913;DHT22;443;51.448;7.028;2023-04-06T12:00:07;14.80;62.40
913;DHT22;443;51.448;7.028;2023-04-06T12:02:34;14.90;60.20
913;DHT22;443;51.448;7.028;2023-04-06T12:05:01;14.90;58.50
913;DHT22;443;51.448;7.028;2023-04-06T12:07:30;14.80;59.10
913;DHT22;443;51.448;7.028;2023-04-06T12:09:57;14.80;57.80
913;DHT22;443;51.448;7.028;2023-04-06T12:12:24;14.90;61.60
913;DHT22;443;51.448;7.028;2023-04-06T12:14:52;14.90;58.30
913;DHT22;443;51.448;7.028;2023-04-06T12:17:19;14.90;63.20
913;DHT22;443;51.448;7.028;2023-04-06T12:19:46;14.90;58.50
913;DHT22;443;51.448;7.028;2023-04-06T12:22:13;14.90;59.70
913;DHT22;443;51.448;7.028;2023-04-06T12:24:41;14.90;58.20
913;DHT22;443;51.448;7.028;2023-04-06T12:27:08;14.90;61.90
913;DHT22;443;51.448;7.028;2023-04-06T12:29:37;14.90;61.50
913;DHT22;443;51.448;7.028;2023-04-06T12:32:04;14.90;62.00
913;DHT22;443;51.448;7.028;2023-04-06T12:34:30;14.90;59.10
913;DHT22;443;51.448;7.028;2023-04-06T12:36:57;14.90;59.80
913;DHT22;443;51.448;7.028;2023-04-06T12:39:25;14.90;60.80
913;DHT22;443;51.448;7.028;2023-04-06T12:41:54;14.90;61.90
913;DHT22;443;51.448;7.028;2023-04-06T12:44:21;14.90;61.60
913;DHT22;443;51.448;7.028;2023-04-06T12:46:48;14.90;58.90
913;DHT22;443;51.448;7.028;2023-04-06T12:49:15;14.90;61.90
913;DHT22;443;51.448;7.028;2023-04-06T12:51:44;14.90;61.10
913;DHT22;443;51.448;7.028;2023-04-06T12:54:11;14.90;59.50
913;DHT22;443;51.448;7.028;2023-04-06T12:56:38;14.90;62.70
913;DHT22;443;51.448;7.028;2023-04-06T12:59:07;14.90;59.70
913;DHT22;443;51.448;7.028;2023-04-06T13:01:33;14.90;61.00
913;DHT22;443;51.448;7.028;2023-04-06T13:04:00;14.90;61.90
913;DHT22;443;51.448;7.028;2023-04-06T13:06:27;14.90;61.90
913;DHT22;443;51.448;7.028;2023-04-06T13:08:56;14.80;61.90
913;DHT22;443;51.448;7.028;2023-04-06T13:11:22;14.90;61.30
913;DHT22;443;51.448;7.028;2023-04-06T13:13:50;14.90;62.00
913;DHT22;443;51.448;7.028;2023-04-06T13:16:19;14.90;58.90
913;DHT22;443;51.448;7.028;2023-04-06T13:18:46;14.90;59.70
913;DHT22;443;51.448;7.028;2023-04-06T13:21:14;14.80;58.70
913;DHT22;443;51.448;7.028;2023-04-06T13:23:42;14.80;58.80
913;DHT22;443;51.448;7.028;2023-04-06T13:26:09;14.80;62.00
913;DHT22;443;51.448;7.028;2023-04-06T13:28:36;14.80;61.20
913;DHT22;443;51.448;7.028;2023-04-06T13:31:04;14.80;59.30
913;DHT22;443;51.448;7.028;2023-04-06T13:33:33;14.80;59.20
913;DHT22;443;51.448;7.028;2023-04-06T13:36:00;14.90;59.40
913;DHT22;443;51.448;7.028;2023-04-06T13:38:27;15.00;57.50
913;DHT22;443;51.448;7.028;2023-04-06T13:40:54;15.00;58.60
913;DHT22;443;51.448;7.028;2023-04-06T13:43:21;14.90;58.50
913;DHT22;443;51.448;7.028;2023-04-06T13:45:50;14.70;58.30
913;DHT22;443;51.448;7.028;2023-04-06T13:48:18;14.70;58.30
913;DHT22;443;51.448;7.028;2023-04-06T13:50:46;14.70;58.60
913;DHT22;443;51.448;7.028;2023-04-06T13:53:13;14.80;58.30
913;DHT22;443;51.448;7.028;2023-04-06T13:55:40;14.80;58.50
913;DHT22;443;51.448;7.028;2023-04-06T13:58:06;14.80;59.00
913;DHT22;443;51.448;7.028;2023-04-06T14:00:34;14.70;58.70
913;DHT22;443;51.448;7.028;2023-04-06T14:03:00;14.70;58.10
913;DHT22;443;51.448;7.028;2023-04-06T14:05:31;14.70;58.50
913;DHT22;443;51.448;7.028;2023-04-06T14:07:59;14.70;60.00
913;DHT22;443;51.448;7.028;2023-04-06T14:10:26;14.70;59.40
913;DHT22;443;51.448;7.028;2023-04-06T14:12:53;14.80;58.50
913;DHT22;443;51.448;7.028;2023-04-06T14:15:19;14.80;59.40
913;DHT22;443;51.448;7.028;2023-04-06T14:17:47;14.80;60.20
913;DHT22;443;51.448;7.028;2023-04-06T14:20:14;14.80;58.30
913;DHT22;443;51.448;7.028;2023-04-06T14:22:41;14.80;57.40
913;DHT22;443;51.448;7.028;2023-04-06T14:25:09;14.80;59.10
913;DHT22;443;51.448;7.028;2023-04-06T14:27:38;14.80;58.70
913;DHT22;443;51.448;7.028;2023-04-06T14:30:06;14.70;61.90
913;DHT22;443;51.448;7.028;2023-04-06T14:32:33;14.60;61.00
913;DHT22;443;51.448;7.028;2023-04-06T14:34:59;14.60;61.20
913;DHT22;443;51.448;7.028;2023-04-06T14:37:26;14.60;58.90
913;DHT22;443;51.448;7.028;2023-04-06T14:39:53;14.50;61.30
913;DHT22;443;51.448;7.028;2023-04-06T14:42:21;14.60;61.30
913;DHT22;443;51.448;7.028;2023-04-06T14:44:48;14.60;61.80
913;DHT22;443;51.448;7.028;2023-04-06T14:47:16;14.60;61.10
913;DHT22;443;51.448;7.028;2023-04-06T14:49:45;14.50;61.40
913;DHT22;443;51.448;7.028;2023-04-06T14:52:12;14.60;60.90
913;DHT22;443;51.448;7.028;2023-04-06T14:54:39;14.60;61.50
913;DHT22;443;51.448;7.028;2023-04-06T14:57:06;14.60;61.60
913;DHT22;443;51.448;7.028;2023-04-06T14:59:34;14.40;62.90
913;DHT22;443;51.448;7.028;2023-04-06T15:02:01;14.50;61.10
913;DHT22;443;51.448;7.028;2023-04-06T15:04:28;14.50;61.80
913;DHT22;443;51.448;7.028;2023-04-06T15:06:55;14.50;61.70
913;DHT22;443;51.448;7.028;2023-04-06T15:09:22;14.40;62.70
913;DHT22;443;51.448;7.028;2023-04-06T15:11:48;14.40;61.60
913;DHT22;443;51.448;7.028;2023-04-06T15:14:16;14.40;61.50
913;DHT22;443;51.448;7.028;2023-04-06T15:16:44;14.40;60.80
913;DHT22;443;51.448;7.028;2023-04-06T15:19:10;14.40;60.30
913;DHT22;443;51.448;7.028;2023-04-06T15:21:37;14.50;62.20
913;DHT22;443;51.448;7.028;2023-04-06T15:24:04;14.50;61.40
913;DHT22;443;51.448;7.028;2023-04-06T15:26:34;14.60;62.40
913;DHT22;443;51.448;7.028;2023-04-06T15:29:01;14.50;59.40
913;DHT22;443;51.448;7.028;2023-04-06T15:31:28;14.50;62.10
913;DHT22;443;51.448;7.028;2023-04-06T15:33:56;14.50;61.40
913;DHT22;443;51.448;7.028;2023-04-06T15:36:24;14.50;62.30
913;DHT22;443;51.448;7.028;2023-04-06T15:38:51;14.50;60.60
913;DHT22;443;51.448;7.028;2023-04-06T15:41:18;14.50;61.50
913;DHT22;443;51.448;7.028;2023-04-06T15:43:45;14.40;64.40
913;DHT22;443;51.448;7.028;2023-04-06T15:46:12;14.40;63.40
913;DHT22;443;51.448;7.028;2023-04-06T15:48:40;14.30;62.80
913;DHT22;443;51.448;7.028;2023-04-06T15:51:08;14.30;62.90
913;DHT22;443;51.448;7.028;2023-04-06T15:53:35;14.30;62.40
913;DHT22;443;51.448;7.028;2023-04-06T15:56:03;14.30;62.90
913;DHT22;443;51.448;7.028;2023-04-06T15:58:32;14.20;63.00
913;DHT22;443;51.448;7.028;2023-04-06T16:00:59;14.20;63.40
913;DHT22;443;51.448;7.028;2023-04-06T16:03:26;14.20;63.40
913;DHT22;443;51.448;7.028;2023-04-06T16:05:53;14.20;64.30
913;DHT22;443;51.448;7.028;2023-04-06T16:08:21;14.10;64.60
913;DHT22;443;51.448;7.028;2023-04-06T16:10:48;14.00;64.90
913;DHT22;443;51.448;7.028;2023-04-06T16:13:15;14.00;65.10
913;DHT22;443;51.448;7.028;2023-04-06T16:15:41;14.00;65.40
913;DHT22;443;51.448;7.028;2023-04-06T16:18:08;14.00;65.50
913;DHT22;443;51.448;7.028;2023-04-06T16:20:35;13.90;65.70
913;DHT22;443;51.448;7.028;2023-04-06T16:23:02;13.90;66.00
913;DHT22;443;51.448;7.028;2023-04-06T16:25:30;13.90;66.10
913;DHT22;443;51.448;7.028;2023-04-06T16:27:57;13.90;66.40
913;DHT22;443;51.448;7.028;2023-04-06T16:30:23;13.90;66.00
913;DHT22;443;51.448;7.028;2023-04-06T16:32:51;13.80;65.80
913;DHT22;443;51.448;7.028;2023-04-06T16:35:18;13.80;66.10